createdAt,value
2023-05-24T00:01:42.374Z,4.65
2023-05-24T00:04:11.254Z,3.95
2023-05-24T00:06:39.379Z,4.18
2023-05-24T00:09:07.315Z,4.40
2023-05-24T00:11:36.832Z,4.13
2023-05-24T00:14:04.862Z,3.78
2023-05-24T00:16:33.022Z,4.10
2023-05-24T00:19:01.117Z,3.83
2023-05-24T00:21:29.116Z,4.45
2023-05-24T00:23:57.142Z,4.07
2023-05-24T00:26:25.031Z,4.40
2023-05-24T00:28:58.323Z,4.28
2023-05-24T00:31:26.178Z,4.18
2023-05-24T00:33:54.135Z,4.68
2023-05-24T00:36:22.029Z,3.72
2023-05-24T00:38:49.976Z,4.45
2023-05-24T00:41:18.160Z,4.10
2023-05-24T00:43:46.261Z,4.25
2023-05-24T00:46:18.080Z,4.10
2023-05-24T00:48:46.674Z,4.20
2023-05-24T00:51:14.822Z,4.38
2023-05-24T00:53:43.832Z,4.45
2023-05-24T00:56:12.912Z,4.32
2023-05-24T00:58:41.261Z,5.03
2023-05-24T01:01:09.325Z,3.95
2023-05-24T01:03:39.829Z,4.65
2023-05-24T01:06:09.284Z,4.32
2023-05-24T01:09:08.304Z,3.97
2023-05-24T01:11:43.859Z,5.18
2023-05-24T01:14:22.379Z,4.53
2023-05-24T01:16:56.497Z,4.20
2023-05-24T01:19:51.320Z,4.30
2023-05-24T01:22:56.782Z,4.72
2023-05-24T01:25:44.512Z,4.13
2023-05-24T01:28:14.208Z,4.22
2023-05-24T01:30:42.711Z,4.47
2023-05-24T01:33:11.100Z,4.85
2023-05-24T01:35:42.666Z,4.05
2023-05-24T01:38:12.293Z,4.28
2023-05-24T01:40:41.603Z,4.05
2023-05-24T01:43:17.500Z,3.88
2023-05-24T01:45:51.083Z,5.00
2023-05-24T01:48:23.375Z,4.43
2023-05-24T01:50:54.609Z,4.07
2023-05-24T01:53:26.303Z,3.90
2023-05-24T01:55:58.051Z,5.07
2023-05-24T01:58:28.611Z,4.75
2023-05-24T02:00:57.405Z,4.47
2023-05-24T02:03:26.099Z,5.10
2023-05-24T02:05:54.025Z,4.00
2023-05-24T02:08:22.281Z,4.10
2023-05-24T02:10:50.221Z,4.20
2023-05-24T02:13:22.495Z,3.90
2023-05-24T02:15:53.834Z,3.72
2023-05-24T02:18:22.722Z,3.65
2023-05-24T02:20:50.965Z,4.53
2023-05-24T02:23:19.071Z,4.05
2023-05-24T02:25:46.959Z,3.85
2023-05-24T02:28:15.028Z,4.28
2023-05-24T02:30:44.882Z,3.33
2023-05-24T02:33:14.631Z,4.60
2023-05-24T02:35:42.824Z,4.47
2023-05-24T02:38:10.815Z,4.15
2023-05-24T02:40:38.680Z,3.65
2023-05-24T02:43:06.561Z,4.13
2023-05-24T02:45:34.740Z,4.20
2023-05-24T02:48:02.772Z,4.65
2023-05-24T02:50:32.285Z,3.72
2023-05-24T02:53:00.169Z,4.68
2023-05-24T02:55:29.244Z,4.45
2023-05-24T02:57:57.441Z,4.00
2023-05-24T03:00:26.331Z,4.82
2023-05-24T03:02:56.950Z,4.65
2023-05-24T03:05:24.985Z,4.63
2023-05-24T03:07:54.482Z,4.05
2023-05-24T03:10:22.444Z,5.38
2023-05-24T03:12:50.427Z,4.55
2023-05-24T03:15:19.028Z,4.45
2023-05-24T03:17:47.751Z,4.47
2023-05-24T03:20:16.201Z,4.78
2023-05-24T03:22:44.116Z,4.63
2023-05-24T03:25:13.584Z,5.47
2023-05-24T03:27:41.800Z,5.97
2023-05-24T03:30:10.786Z,6.50
2023-05-24T03:32:47.777Z,6.70
2023-05-24T03:35:15.895Z,6.05
2023-05-24T03:37:43.734Z,5.28
2023-05-24T03:40:13.444Z,5.63
2023-05-24T03:42:57.061Z,5.65
2023-05-24T03:45:40.407Z,5.03
2023-05-24T03:48:08.397Z,5.15
2023-05-24T03:50:36.482Z,5.68
2023-05-24T03:53:04.521Z,4.95
2023-05-24T03:55:33.929Z,4.85
2023-05-24T03:58:02.038Z,5.35
2023-05-24T04:00:30.245Z,5.07
2023-05-24T04:02:58.411Z,5.68
2023-05-24T04:05:27.302Z,5.57
2023-05-24T04:07:55.512Z,5.00
2023-05-24T04:10:23.732Z,5.13
2023-05-24T04:12:52.976Z,5.53
2023-05-24T04:15:21.503Z,5.18
2023-05-24T04:17:54.981Z,4.90
2023-05-24T04:20:25.542Z,5.30
2023-05-24T04:22:53.688Z,5.22
2023-05-24T04:25:21.820Z,5.32
2023-05-24T04:27:50.476Z,4.97
2023-05-24T04:30:21.523Z,5.57
2023-05-24T04:32:49.740Z,5.43
2023-05-24T04:35:17.904Z,4.72
2023-05-24T04:37:46.822Z,6.35
2023-05-24T04:40:16.354Z,5.32
2023-05-24T04:42:44.242Z,5.70
2023-05-24T04:45:12.608Z,5.68
2023-05-24T04:47:42.548Z,5.00
2023-05-24T04:50:11.267Z,5.93
2023-05-24T04:52:39.227Z,5.07
2023-05-24T04:55:08.233Z,5.20
2023-05-24T04:57:36.212Z,5.68
2023-05-24T05:00:05.272Z,5.50
2023-05-24T05:02:33.898Z,6.22
2023-05-24T05:05:03.346Z,6.03
2023-05-24T05:07:31.667Z,5.95
2023-05-24T05:09:59.651Z,6.13
2023-05-24T05:12:27.588Z,6.00
2023-05-24T05:14:55.678Z,6.30
2023-05-24T05:17:23.525Z,6.68
2023-05-24T05:19:51.501Z,5.75
2023-05-24T05:22:21.041Z,6.35
2023-05-24T05:24:49.300Z,6.38
2023-05-24T05:27:17.279Z,6.47
2023-05-24T05:29:45.301Z,6.32
2023-05-24T05:32:13.232Z,6.60
2023-05-24T05:34:41.217Z,6.00
2023-05-24T05:37:09.082Z,6.82
2023-05-24T05:39:38.434Z,6.30
2023-05-24T05:42:07.687Z,6.32
2023-05-24T05:44:35.901Z,6.63
2023-05-24T05:47:07.361Z,6.63
2023-05-24T05:49:36.551Z,6.50
2023-05-24T05:52:04.744Z,6.78
2023-05-24T05:54:32.808Z,6.90
2023-05-24T05:57:02.207Z,6.60
2023-05-24T05:59:30.195Z,7.00
2023-05-24T06:01:58.136Z,6.57
2023-05-24T06:04:26.224Z,6.40
2023-05-24T06:06:54.375Z,6.25
2023-05-24T06:09:22.314Z,6.22
2023-05-24T06:11:52.808Z,6.45
2023-05-24T06:14:22.767Z,6.35
2023-05-24T06:16:52.472Z,7.18
2023-05-24T06:19:20.907Z,5.68
2023-05-24T06:21:50.796Z,6.30
2023-05-24T06:24:20.881Z,6.57
2023-05-24T06:26:48.877Z,6.05
2023-05-24T06:29:16.918Z,6.22
2023-05-24T06:31:47.838Z,5.90
2023-05-24T06:34:17.780Z,5.85
2023-05-24T06:36:47.986Z,5.75
2023-05-24T06:39:17.021Z,6.22
2023-05-24T06:41:46.922Z,6.28
2023-05-24T06:44:15.122Z,6.38
2023-05-24T06:46:43.693Z,6.45
2023-05-24T06:49:13.579Z,6.97
2023-05-24T06:51:41.876Z,6.57
2023-05-24T06:54:10.083Z,5.93
2023-05-24T06:56:37.908Z,6.10
2023-05-24T06:59:06.121Z,5.40
2023-05-24T07:01:34.175Z,5.68
2023-05-24T07:04:02.223Z,6.18
2023-05-24T07:06:32.669Z,5.38
2023-05-24T07:09:01.921Z,4.90
2023-05-24T07:11:30.226Z,5.82
2023-05-24T07:13:58.358Z,4.93
2023-05-24T07:16:26.417Z,5.20
2023-05-24T07:18:55.702Z,5.00
2023-05-24T07:21:23.784Z,5.00
2023-05-24T07:23:53.789Z,4.50
2023-05-24T07:26:21.934Z,5.10
2023-05-24T07:28:50.055Z,5.03
2023-05-24T07:31:18.086Z,5.10
2023-05-24T07:33:46.367Z,5.28
2023-05-24T07:36:15.298Z,4.80
2023-05-24T07:38:43.586Z,4.65
2023-05-24T07:41:15.238Z,4.68
2023-05-24T07:43:43.257Z,4.72
2023-05-24T07:46:11.664Z,5.15
2023-05-24T07:48:39.787Z,5.10
2023-05-24T07:51:07.841Z,5.43
2023-05-24T07:53:37.693Z,5.13
2023-05-24T07:56:06.276Z,5.63
2023-05-24T07:58:35.726Z,4.40
2023-05-24T08:01:03.689Z,4.30
2023-05-24T08:03:31.679Z,4.38
2023-05-24T08:05:59.685Z,4.88
2023-05-24T08:08:27.709Z,4.43
2023-05-24T08:10:55.682Z,4.38
2023-05-24T08:13:23.927Z,4.80
2023-05-24T08:15:53.371Z,4.53
2023-05-24T08:18:21.847Z,4.20
2023-05-24T08:20:49.863Z,4.20
2023-05-24T08:23:17.886Z,4.32
2023-05-24T08:25:46.089Z,4.90
2023-05-24T08:28:14.430Z,4.20
2023-05-24T08:30:43.528Z,4.20
2023-05-24T08:33:12.870Z,4.30
2023-05-24T08:35:41.507Z,4.47
2023-05-24T08:38:10.367Z,5.00
2023-05-24T08:40:38.366Z,4.75
2023-05-24T08:43:11.917Z,4.88
2023-05-24T08:45:41.270Z,4.22
2023-05-24T08:48:10.594Z,4.43
2023-05-24T08:50:40.294Z,4.55
2023-05-24T08:53:08.492Z,4.28
2023-05-24T08:55:36.356Z,4.20
2023-05-24T08:58:04.965Z,4.15
2023-05-24T09:00:33.140Z,4.68
2023-05-24T09:03:01.539Z,4.22
2023-05-24T09:05:30.999Z,3.90
2023-05-24T09:08:01.169Z,4.38
2023-05-24T09:10:41.240Z,4.50
2023-05-24T09:13:18.578Z,4.65
2023-05-24T09:15:46.696Z,3.90
2023-05-24T09:18:14.871Z,3.92
2023-05-24T09:20:43.013Z,4.20
2023-05-24T09:23:14.828Z,4.53
2023-05-24T09:25:45.587Z,4.55
2023-05-24T09:28:14.835Z,4.68
2023-05-24T09:30:44.848Z,4.15
2023-05-24T09:33:13.834Z,4.20
2023-05-24T09:35:43.559Z,3.78
2023-05-24T09:38:20.420Z,4.53
2023-05-24T09:40:48.739Z,4.47
2023-05-24T09:43:16.679Z,3.78
2023-05-24T09:45:47.212Z,4.20
2023-05-24T09:48:16.828Z,4.18
2023-05-24T09:50:47.750Z,3.65
2023-05-24T09:53:19.983Z,4.20
2023-05-24T09:55:48.877Z,4.13
2023-05-24T09:58:18.521Z,3.92
2023-05-24T10:00:47.295Z,3.95
2023-05-24T10:03:16.332Z,3.70
2023-05-24T10:05:46.573Z,4.32
2023-05-24T10:08:15.315Z,3.65
2023-05-24T10:10:45.944Z,4.38
2023-05-24T10:13:16.044Z,3.88
2023-05-24T10:15:45.155Z,4.35
2023-05-24T10:18:14.322Z,4.47
2023-05-24T10:20:43.200Z,4.30
2023-05-24T10:23:12.806Z,4.28
2023-05-24T10:25:56.633Z,4.00
2023-05-24T10:28:25.602Z,3.85
2023-05-24T10:31:02.389Z,4.20
2023-05-24T10:33:31.572Z,3.72
2023-05-24T10:35:59.654Z,4.13
2023-05-24T10:38:27.800Z,4.47
2023-05-24T10:40:57.165Z,3.50
2023-05-24T10:43:25.355Z,3.80
2023-05-24T10:45:53.494Z,3.67
2023-05-24T10:48:36.298Z,4.43
2023-05-24T10:51:30.993Z,4.38
2023-05-24T10:53:59.183Z,4.20
2023-05-24T10:56:29.910Z,3.95
2023-05-24T10:59:02.391Z,3.80
2023-05-24T11:01:32.366Z,4.05
2023-05-24T11:04:10.606Z,4.40
2023-05-24T11:06:49.531Z,3.40
2023-05-24T11:09:20.077Z,4.00
2023-05-24T11:11:50.862Z,3.42
2023-05-24T11:14:25.081Z,3.65
2023-05-24T11:16:53.326Z,4.20
2023-05-24T11:19:22.456Z,3.50
2023-05-24T11:21:51.932Z,3.13
2023-05-24T11:24:22.224Z,3.35
2023-05-24T11:26:52.991Z,3.67
2023-05-24T11:29:23.149Z,3.75
2023-05-24T11:31:52.815Z,4.10
2023-05-24T11:34:21.277Z,3.88
2023-05-24T11:36:50.100Z,3.63
2023-05-24T11:39:18.328Z,3.47
2023-05-24T11:41:46.612Z,3.65
2023-05-24T11:44:19.093Z,4.72
2023-05-24T11:46:47.787Z,4.30
2023-05-24T11:49:16.953Z,3.83
2023-05-24T11:51:45.467Z,3.60
2023-05-24T11:54:13.735Z,3.47
2023-05-24T11:56:41.855Z,4.00
2023-05-24T11:59:18.045Z,4.38
2023-05-24T12:01:46.718Z,4.07
2023-05-24T12:04:15.130Z,3.70
2023-05-24T12:06:44.844Z,4.00
2023-05-24T12:09:14.593Z,4.30
2023-05-24T12:11:43.856Z,4.13
2023-05-24T12:14:16.587Z,4.32
2023-05-24T12:16:45.627Z,5.07
2023-05-24T12:19:32.394Z,3.80
2023-05-24T12:22:02.604Z,4.00
2023-05-24T12:24:32.899Z,4.10
2023-05-24T12:27:03.196Z,4.13
2023-05-24T12:29:36.806Z,3.85
2023-05-24T12:32:06.254Z,4.20
2023-05-24T12:34:35.280Z,4.07
2023-05-24T12:37:03.839Z,4.07
2023-05-24T12:39:34.296Z,3.38
2023-05-24T12:42:03.035Z,4.10
2023-05-24T12:44:33.108Z,4.10
2023-05-24T12:47:03.574Z,4.07
2023-05-24T12:49:32.569Z,4.47
2023-05-24T12:52:02.267Z,3.72
2023-05-24T12:54:31.395Z,4.55
2023-05-24T12:57:04.764Z,3.92
2023-05-24T12:59:32.756Z,4.30
2023-05-24T13:02:02.577Z,3.70
2023-05-24T13:04:33.809Z,3.85
2023-05-24T13:07:04.052Z,3.78
2023-05-24T13:09:33.626Z,3.90
2023-05-24T13:12:02.240Z,4.03
2023-05-24T13:14:30.836Z,3.92
2023-05-24T13:17:00.031Z,3.95
2023-05-24T13:19:29.726Z,3.97
2023-05-24T13:21:58.035Z,3.20
2023-05-24T13:24:27.362Z,4.32
2023-05-24T13:26:59.498Z,4.20
2023-05-24T13:29:39.651Z,4.00
2023-05-24T13:32:14.860Z,3.90
2023-05-24T13:34:45.344Z,3.85
2023-05-24T13:37:14.294Z,3.83
2023-05-24T13:39:43.870Z,3.70
2023-05-24T13:42:16.270Z,3.88
2023-05-24T13:44:44.743Z,3.63
2023-05-24T13:47:20.843Z,4.30
2023-05-24T13:49:57.379Z,3.97
2023-05-24T13:52:26.313Z,4.22
2023-05-24T13:54:54.385Z,3.78
2023-05-24T13:57:25.578Z,3.50
2023-05-24T13:59:56.102Z,3.88
2023-05-24T14:02:24.098Z,6.18
2023-05-24T14:04:52.592Z,5.03
2023-05-24T14:07:22.675Z,4.13
2023-05-24T14:09:50.868Z,3.95
2023-05-24T14:12:19.039Z,3.42
2023-05-24T14:17:21.693Z,3.40
2023-05-24T14:19:49.889Z,2.90
2023-05-24T14:22:18.041Z,3.30
2023-05-24T14:24:47.958Z,3.67
2023-05-24T14:27:16.458Z,3.28
2023-05-24T14:29:44.478Z,3.67
2023-05-24T14:32:12.870Z,3.72
2023-05-24T14:34:41.177Z,3.50
2023-05-24T14:37:09.240Z,3.30
2023-05-24T14:39:37.322Z,3.38
2023-05-24T14:42:07.670Z,3.55
2023-05-24T14:44:35.911Z,3.58
2023-05-24T14:47:03.998Z,3.70
2023-05-24T14:49:31.920Z,4.07
2023-05-24T14:52:00.177Z,3.65
2023-05-24T14:54:28.316Z,3.78
2023-05-24T14:56:56.419Z,3.75
2023-05-24T14:59:26.150Z,3.30
2023-05-24T15:01:54.691Z,3.70
2023-05-24T15:04:23.012Z,3.63
2023-05-24T15:06:51.349Z,3.25
2023-05-24T15:09:19.554Z,3.38
2023-05-24T15:11:47.853Z,3.45
2023-05-24T15:14:16.199Z,3.90
2023-05-24T15:16:46.083Z,3.20
2023-05-24T15:19:14.231Z,3.03
2023-05-24T15:21:42.290Z,3.90
2023-05-24T15:24:12.262Z,3.40
2023-05-24T15:26:40.400Z,3.72
2023-05-24T15:29:08.647Z,3.40
2023-05-24T15:31:37.162Z,4.35
2023-05-24T15:34:08.393Z,3.38
2023-05-24T15:36:38.839Z,3.25
2023-05-24T15:39:07.013Z,3.53
2023-05-24T15:41:37.900Z,3.78
2023-05-24T15:44:08.990Z,3.70
2023-05-24T15:46:37.755Z,3.45
2023-05-24T15:49:07.406Z,3.80
2023-05-24T15:54:09.894Z,3.67
2023-05-24T15:56:38.249Z,3.53
2023-05-24T15:59:06.881Z,3.20
2023-05-24T16:01:35.617Z,3.60
2023-05-24T16:04:05.003Z,3.30
2023-05-24T16:06:34.440Z,3.78
2023-05-24T16:09:03.149Z,2.95
2023-05-24T16:11:31.203Z,3.70
2023-05-24T16:13:59.289Z,3.55
2023-05-24T16:16:28.860Z,3.35
2023-05-24T16:18:57.308Z,3.58
2023-05-24T16:21:26.112Z,3.17
2023-05-24T16:23:55.833Z,3.63
2023-05-24T16:26:23.988Z,2.95
2023-05-24T16:28:52.347Z,3.33
2023-05-24T16:31:22.437Z,3.38
2023-05-24T16:33:51.017Z,3.58
2023-05-24T16:36:18.872Z,3.45
2023-05-24T16:38:47.051Z,3.72
2023-05-24T16:41:16.674Z,3.00
2023-05-24T16:43:44.822Z,3.08
2023-05-24T16:46:16.025Z,3.22
2023-05-24T16:48:48.207Z,4.05
2023-05-24T16:51:16.820Z,3.80
2023-05-24T16:53:45.066Z,3.75
2023-05-24T16:56:13.172Z,3.30
2023-05-24T16:58:42.921Z,4.13
2023-05-24T17:01:10.959Z,3.38
2023-05-24T17:03:39.108Z,3.70
2023-05-24T17:06:07.997Z,3.30
2023-05-24T17:08:37.051Z,4.10
2023-05-24T17:11:05.589Z,3.20
2023-05-24T17:13:34.438Z,3.40
2023-05-24T17:16:08.100Z,3.10
2023-05-24T17:18:36.982Z,3.55
2023-05-24T17:21:06.085Z,3.33
2023-05-24T17:23:38.490Z,2.97
2023-05-24T17:26:08.116Z,3.20
2023-05-24T17:28:37.162Z,3.45
2023-05-24T17:31:09.136Z,3.53
2023-05-24T17:33:37.885Z,3.38
2023-05-24T17:36:06.712Z,3.30
2023-05-24T17:38:37.646Z,3.10
2023-05-24T17:41:09.975Z,3.08
2023-05-24T17:43:40.212Z,3.10
2023-05-24T17:46:10.431Z,3.08
2023-05-24T17:48:39.634Z,3.50
2023-05-24T17:51:08.982Z,3.55
2023-05-24T17:53:38.545Z,3.42
2023-05-24T17:56:07.654Z,3.78
2023-05-24T17:58:37.404Z,3.20
2023-05-24T18:01:07.577Z,3.60
2023-05-24T18:03:38.810Z,3.22
2023-05-24T18:06:08.144Z,2.85
2023-05-24T18:08:38.869Z,3.47
2023-05-24T18:11:10.610Z,3.53
2023-05-24T18:13:40.156Z,2.90
2023-05-24T18:16:09.131Z,3.20
2023-05-24T18:18:41.660Z,2.85
2023-05-24T18:21:17.643Z,2.88
2023-05-24T18:23:50.439Z,3.20
2023-05-24T18:26:32.115Z,3.33
2023-05-24T18:29:22.354Z,3.10
2023-05-24T18:31:50.576Z,3.40
2023-05-24T18:34:22.150Z,3.47
2023-05-24T18:36:50.188Z,4.07
2023-05-24T18:39:19.274Z,3.53
2023-05-24T18:41:48.770Z,4.07
2023-05-24T18:44:16.974Z,4.45
2023-05-24T18:46:45.448Z,3.80
2023-05-24T18:49:14.519Z,4.25
2023-05-24T18:51:47.575Z,3.67
2023-05-24T18:54:17.633Z,4.10
2023-05-24T18:56:47.178Z,4.00
2023-05-24T18:59:16.911Z,3.80
2023-05-24T19:01:45.847Z,5.07
2023-05-24T19:04:14.140Z,4.25
2023-05-24T19:06:45.798Z,4.40
2023-05-24T19:09:14.259Z,4.43
2023-05-24T19:11:42.239Z,4.45
2023-05-24T19:14:14.131Z,4.32
2023-05-24T19:16:42.888Z,4.25
2023-05-24T19:19:11.513Z,4.10
2023-05-24T19:21:40.531Z,4.35
2023-05-24T19:24:12.935Z,4.60
2023-05-24T19:26:41.126Z,4.85
2023-05-24T19:29:09.288Z,4.35
2023-05-24T19:31:38.193Z,3.95
2023-05-24T19:34:06.120Z,4.28
2023-05-24T19:36:34.374Z,4.43
2023-05-24T19:39:02.266Z,4.95
2023-05-24T19:41:32.324Z,4.85
2023-05-24T19:44:00.814Z,4.95
2023-05-24T19:46:30.470Z,4.30
2023-05-24T19:48:58.703Z,4.20
2023-05-24T19:51:26.975Z,4.45
2023-05-24T19:53:55.481Z,3.90
2023-05-24T19:56:24.277Z,4.50
2023-05-24T19:58:56.334Z,4.43
2023-05-24T20:01:24.589Z,4.38
2023-05-24T20:03:53.223Z,4.32
2023-05-24T20:06:21.444Z,4.13
2023-05-24T20:08:51.279Z,4.00
2023-05-24T20:11:19.587Z,4.25
2023-05-24T20:13:47.686Z,4.22
2023-05-24T20:16:17.158Z,4.35
2023-05-24T20:18:45.131Z,4.38
2023-05-24T20:21:13.580Z,4.78
2023-05-24T20:23:42.196Z,4.53
2023-05-24T20:26:10.407Z,4.28
2023-05-24T20:28:41.103Z,5.03
2023-05-24T20:31:09.347Z,4.40
2023-05-24T20:33:39.167Z,5.03
2023-05-24T20:36:08.243Z,4.80
2023-05-24T20:38:37.621Z,4.80
2023-05-24T20:41:05.763Z,4.70
2023-05-24T20:43:33.783Z,4.60
2023-05-24T20:46:02.277Z,5.35
2023-05-24T20:48:30.336Z,4.82
2023-05-24T20:51:00.491Z,5.20
2023-05-24T20:53:28.593Z,4.53
2023-05-24T20:55:57.582Z,5.43
2023-05-24T20:58:25.972Z,4.55
2023-05-24T21:00:54.791Z,4.95
2023-05-24T21:03:23.158Z,5.15
2023-05-24T21:05:51.576Z,4.63
2023-05-24T21:08:21.497Z,5.40
2023-05-24T21:10:51.207Z,5.18
2023-05-24T21:13:20.570Z,5.40
2023-05-24T21:15:50.961Z,4.82
2023-05-24T21:18:19.457Z,5.15
2023-05-24T21:20:48.109Z,5.47
2023-05-24T21:23:16.412Z,5.57
2023-05-24T21:25:47.457Z,6.45
2023-05-24T21:28:15.942Z,5.28
2023-05-24T21:30:44.461Z,5.30
2023-05-24T21:33:13.153Z,5.13
2023-05-24T21:35:41.934Z,5.00
2023-05-24T21:38:10.344Z,5.70
2023-05-24T21:40:38.494Z,5.82
2023-05-24T21:43:12.372Z,5.15
2023-05-24T21:45:41.155Z,5.45
2023-05-24T21:48:10.035Z,5.40
2023-05-24T21:50:42.422Z,5.25
2023-05-24T21:53:11.211Z,5.28
2023-05-24T21:55:39.349Z,5.47
2023-05-24T21:58:14.873Z,4.85
2023-05-24T22:00:45.667Z,5.60
2023-05-24T22:03:14.032Z,5.15
2023-05-24T22:05:42.499Z,5.63
2023-05-24T22:08:11.913Z,5.13
2023-05-24T22:10:40.325Z,4.90
2023-05-24T22:13:10.911Z,5.18
2023-05-24T22:15:38.998Z,4.88
2023-05-24T22:18:07.409Z,4.93
2023-05-24T22:20:38.228Z,4.70
2023-05-24T22:23:07.189Z,5.20
2023-05-24T22:25:35.925Z,5.10
2023-05-24T22:28:04.282Z,5.30
2023-05-24T22:30:39.119Z,5.10
2023-05-24T22:33:07.843Z,4.70
2023-05-24T22:35:36.613Z,5.18
2023-05-24T22:38:07.922Z,4.40
2023-05-24T22:40:38.964Z,4.80
2023-05-24T22:43:07.865Z,5.03
2023-05-24T22:45:37.600Z,4.78
2023-05-24T22:48:08.943Z,4.90
2023-05-24T22:50:38.668Z,4.90
2023-05-24T22:53:17.322Z,4.68
2023-05-24T22:55:48.024Z,4.72
2023-05-24T22:58:16.672Z,5.60
2023-05-24T23:00:46.537Z,4.05
2023-05-24T23:03:14.958Z,4.60
2023-05-24T23:05:43.813Z,5.15
2023-05-24T23:08:13.346Z,4.82
2023-05-24T23:10:45.712Z,5.05
2023-05-24T23:13:14.989Z,4.75
2023-05-24T23:15:43.620Z,5.28
2023-05-24T23:18:16.106Z,5.18
2023-05-24T23:20:44.651Z,4.93
2023-05-24T23:23:14.289Z,4.90
2023-05-24T23:25:43.544Z,4.95
2023-05-24T23:28:12.250Z,4.68
2023-05-24T23:30:40.561Z,5.53
2023-05-24T23:33:08.683Z,4.68
2023-05-24T23:35:39.836Z,5.45
2023-05-24T23:38:08.285Z,5.47
2023-05-24T23:40:40.865Z,5.68
2023-05-24T23:43:11.679Z,4.70
2023-05-24T23:45:43.436Z,5.60
2023-05-24T23:48:12.394Z,5.00
2023-05-24T23:50:53.615Z,4.80
2023-05-24T23:53:22.757Z,5.18
2023-05-24T23:55:51.455Z,5.00
2023-05-24T23:58:19.695Z,4.82
